< < Back
Terminal Aerodrome Forecast


Current Version              Previous Versions:   1  2  3  4  5  6  7  8  9  

Terminal Aerodrome Forecast

611
FTUS42 KTAE 301517 AAA
TAFVLD
TAF AMD
KVLD 301517Z 3015/0112 26010KT P6SM VCTS SCT025CB
      TEMPO 3016/3020 VRB15G30KT 3SM TSRA BKN025CB
     FM010100 20002KT P6SM OVC250=

Latest METAR

959
SAUS70 KWBC 301900 RRN
MTRVLD
METAR KVLD 301853Z 18003KT 10SM SCT110 22/21 A3009 RMK AO2 RAE06 SLP195
P0000 T02220211


USA.gov is the U.S. government's official web portal to all federal, state and local government web resources and services.